sensor_id;sensor_type;location;lat;lon;timestamp;temperature;humidity
71304;DHT22;59091;47.446;19.148;2023-12-14T00:01:57;7.29;82.39
71304;DHT22;59091;47.446;19.148;2023-12-14T00:04:22;7.29;82.32
71304;DHT22;59091;47.446;19.148;2023-12-14T00:06:47;7.29;82.26
71304;DHT22;59091;47.446;19.148;2023-12-14T00:09:13;7.24;82.29
71304;DHT22;59091;47.446;19.148;2023-12-14T00:11:39;7.22;82.45
71304;DHT22;59091;47.446;19.148;2023-12-14T00:14:04;7.18;82.63
71304;DHT22;59091;47.446;19.148;2023-12-14T00:16:30;7.22;82.65
71304;DHT22;59091;47.446;19.148;2023-12-14T00:18:55;7.22;82.62
71304;DHT22;59091;47.446;19.148;2023-12-14T00:21:21;7.22;82.68
71304;DHT22;59091;47.446;19.148;2023-12-14T00:23:46;7.22;82.68
71304;DHT22;59091;47.446;19.148;2023-12-14T00:26:12;7.24;82.64
71304;DHT22;59091;47.446;19.148;2023-12-14T00:28:37;7.23;82.61
71304;DHT22;59091;47.446;19.148;2023-12-14T00:31:03;7.23;82.58
71304;DHT22;59091;47.446;19.148;2023-12-14T00:33:29;7.20;82.45
71304;DHT22;59091;47.446;19.148;2023-12-14T00:35:54;7.22;82.37
71304;DHT22;59091;47.446;19.148;2023-12-14T00:38:20;7.23;82.35
71304;DHT22;59091;47.446;19.148;2023-12-14T00:40:45;7.19;82.36
71304;DHT22;59091;47.446;19.148;2023-12-14T00:43:11;7.09;82.56
71304;DHT22;59091;47.446;19.148;2023-12-14T00:45:36;7.06;82.67
71304;DHT22;59091;47.446;19.148;2023-12-14T00:48:01;7.08;82.80
71304;DHT22;59091;47.446;19.148;2023-12-14T00:50:27;7.03;82.87
71304;DHT22;59091;47.446;19.148;2023-12-14T00:52:52;7.03;82.88
71304;DHT22;59091;47.446;19.148;2023-12-14T00:55:18;7.02;82.96
71304;DHT22;59091;47.446;19.148;2023-12-14T00:57:43;7.08;82.84
71304;DHT22;59091;47.446;19.148;2023-12-14T01:00:09;7.10;82.93
71304;DHT22;59091;47.446;19.148;2023-12-14T01:02:36;7.08;82.85
71304;DHT22;59091;47.446;19.148;2023-12-14T01:05:01;7.08;82.73
71304;DHT22;59091;47.446;19.148;2023-12-14T01:07:27;6.99;82.84
71304;DHT22;59091;47.446;19.148;2023-12-14T01:09:52;6.93;83.21
71304;DHT22;59091;47.446;19.148;2023-12-14T01:12:17;6.98;83.16
71304;DHT22;59091;47.446;19.148;2023-12-14T01:14:43;7.02;83.25
71304;DHT22;59091;47.446;19.148;2023-12-14T01:17:08;6.99;83.38
71304;DHT22;59091;47.446;19.148;2023-12-14T01:19:34;7.00;83.34
71304;DHT22;59091;47.446;19.148;2023-12-14T01:21:59;6.95;83.55
71304;DHT22;59091;47.446;19.148;2023-12-14T01:24:24;6.89;83.83
71304;DHT22;59091;47.446;19.148;2023-12-14T01:26:50;6.88;83.84
71304;DHT22;59091;47.446;19.148;2023-12-14T01:29:15;6.91;83.75
71304;DHT22;59091;47.446;19.148;2023-12-14T01:31:41;6.81;83.82
71304;DHT22;59091;47.446;19.148;2023-12-14T01:34:06;6.81;83.96
71304;DHT22;59091;47.446;19.148;2023-12-14T01:36:31;6.87;83.74
71304;DHT22;59091;47.446;19.148;2023-12-14T01:38:57;6.89;83.80
71304;DHT22;59091;47.446;19.148;2023-12-14T01:41:22;6.88;83.94
71304;DHT22;59091;47.446;19.148;2023-12-14T01:43:48;6.92;83.82
71304;DHT22;59091;47.446;19.148;2023-12-14T01:46:13;6.98;83.61
71304;DHT22;59091;47.446;19.148;2023-12-14T01:48:40;6.98;83.61
71304;DHT22;59091;47.446;19.148;2023-12-14T01:51:06;6.96;83.44
71304;DHT22;59091;47.446;19.148;2023-12-14T01:53:31;6.88;83.80
71304;DHT22;59091;47.446;19.148;2023-12-14T01:55:57;6.92;83.63
71304;DHT22;59091;47.446;19.148;2023-12-14T01:58:22;6.98;83.54
71304;DHT22;59091;47.446;19.148;2023-12-14T02:03:45;7.00;83.30
71304;DHT22;59091;47.446;19.148;2023-12-14T02:06:11;7.05;83.28
71304;DHT22;59091;47.446;19.148;2023-12-14T02:08:36;7.06;83.20
71304;DHT22;59091;47.446;19.148;2023-12-14T02:11:02;7.03;83.09
71304;DHT22;59091;47.446;19.148;2023-12-14T02:13:27;7.06;83.00
71304;DHT22;59091;47.446;19.148;2023-12-14T02:15:53;7.08;82.99
71304;DHT22;59091;47.446;19.148;2023-12-14T02:18:19;7.06;82.88
71304;DHT22;59091;47.446;19.148;2023-12-14T02:20:44;7.08;82.78
71304;DHT22;59091;47.446;19.148;2023-12-14T02:23:10;7.08;82.82
71304;DHT22;59091;47.446;19.148;2023-12-14T02:25:35;7.05;82.95
71304;DHT22;59091;47.446;19.148;2023-12-14T02:28:00;6.88;83.60
71304;DHT22;59091;47.446;19.148;2023-12-14T02:30:26;6.89;83.65
71304;DHT22;59091;47.446;19.148;2023-12-14T02:32:51;6.89;83.62
71304;DHT22;59091;47.446;19.148;2023-12-14T02:35:17;6.89;83.67
71304;DHT22;59091;47.446;19.148;2023-12-14T02:37:43;6.89;83.73
71304;DHT22;59091;47.446;19.148;2023-12-14T02:40:09;6.89;83.74
71304;DHT22;59091;47.446;19.148;2023-12-14T02:42:35;6.96;83.54
71304;DHT22;59091;47.446;19.148;2023-12-14T02:45:01;7.02;83.48
71304;DHT22;59091;47.446;19.148;2023-12-14T02:47:28;7.05;83.45
71304;DHT22;59091;47.446;19.148;2023-12-14T02:49:54;7.08;83.37
71304;DHT22;59091;47.446;19.148;2023-12-14T02:52:19;7.09;83.22
71304;DHT22;59091;47.446;19.148;2023-12-14T02:54:45;7.13;83.10
71304;DHT22;59091;47.446;19.148;2023-12-14T02:57:10;7.12;83.11
71304;DHT22;59091;47.446;19.148;2023-12-14T02:59:35;7.08;83.07
71304;DHT22;59091;47.446;19.148;2023-12-14T03:02:01;7.10;82.98
71304;DHT22;59091;47.446;19.148;2023-12-14T03:04:26;7.09;82.98
71304;DHT22;59091;47.446;19.148;2023-12-14T03:06:52;7.08;82.91
71304;DHT22;59091;47.446;19.148;2023-12-14T03:09:17;7.08;83.02
71304;DHT22;59091;47.446;19.148;2023-12-14T03:11:44;7.09;83.07
71304;DHT22;59091;47.446;19.148;2023-12-14T03:14:10;7.10;82.97
71304;DHT22;59091;47.446;19.148;2023-12-14T03:16:36;7.10;82.92
71304;DHT22;59091;47.446;19.148;2023-12-14T03:19:02;7.16;82.80
71304;DHT22;59091;47.446;19.148;2023-12-14T03:21:28;7.18;82.73
71304;DHT22;59091;47.446;19.148;2023-12-14T03:23:54;7.15;82.67
71304;DHT22;59091;47.446;19.148;2023-12-14T03:26:19;7.10;82.56
71304;DHT22;59091;47.446;19.148;2023-12-14T03:28:45;7.09;82.58
71304;DHT22;59091;47.446;19.148;2023-12-14T03:31:11;7.12;82.48
71304;DHT22;59091;47.446;19.148;2023-12-14T03:33:38;7.13;82.43
71304;DHT22;59091;47.446;19.148;2023-12-14T03:36:04;7.10;82.43
71304;DHT22;59091;47.446;19.148;2023-12-14T03:38:30;7.02;82.62
71304;DHT22;59091;47.446;19.148;2023-12-14T03:40:55;7.05;82.61
71304;DHT22;59091;47.446;19.148;2023-12-14T03:43:20;7.02;82.64
71304;DHT22;59091;47.446;19.148;2023-12-14T03:45:46;7.03;82.67
71304;DHT22;59091;47.446;19.148;2023-12-14T03:48:11;7.08;82.66
71304;DHT22;59091;47.446;19.148;2023-12-14T03:50:37;7.08;82.66
71304;DHT22;59091;47.446;19.148;2023-12-14T03:53:02;7.08;82.64
71304;DHT22;59091;47.446;19.148;2023-12-14T03:55:28;7.09;82.57
71304;DHT22;59091;47.446;19.148;2023-12-14T03:57:53;7.09;82.58
71304;DHT22;59091;47.446;19.148;2023-12-14T04:00:19;7.08;82.58
71304;DHT22;59091;47.446;19.148;2023-12-14T04:02:44;7.10;82.48
71304;DHT22;59091;47.446;19.148;2023-12-14T04:05:10;7.08;82.50
71304;DHT22;59091;47.446;19.148;2023-12-14T04:07:39;7.05;82.69
71304;DHT22;59091;47.446;19.148;2023-12-14T04:10:14;7.02;82.54
71304;DHT22;59091;47.446;19.148;2023-12-14T04:12:40;6.88;83.55
71304;DHT22;59091;47.446;19.148;2023-12-14T04:15:07;6.92;83.49
71304;DHT22;59091;47.446;19.148;2023-12-14T04:17:34;6.93;83.60
71304;DHT22;59091;47.446;19.148;2023-12-14T04:19:59;6.98;83.69
71304;DHT22;59091;47.446;19.148;2023-12-14T04:22:26;6.96;83.71
71304;DHT22;59091;47.446;19.148;2023-12-14T04:24:51;6.98;83.77
71304;DHT22;59091;47.446;19.148;2023-12-14T04:27:17;6.96;83.95
71304;DHT22;59091;47.446;19.148;2023-12-14T04:29:42;6.96;83.83
71304;DHT22;59091;47.446;19.148;2023-12-14T04:32:08;6.96;83.92
71304;DHT22;59091;47.446;19.148;2023-12-14T04:34:34;7.05;83.81
71304;DHT22;59091;47.446;19.148;2023-12-14T04:37:00;6.98;83.87
71304;DHT22;59091;47.446;19.148;2023-12-14T04:39:25;6.99;83.69
71304;DHT22;59091;47.446;19.148;2023-12-14T04:41:51;7.06;83.48
71304;DHT22;59091;47.446;19.148;2023-12-14T04:44:18;6.92;83.58
71304;DHT22;59091;47.446;19.148;2023-12-14T04:46:44;7.00;83.44
71304;DHT22;59091;47.446;19.148;2023-12-14T04:49:09;6.92;83.86
71304;DHT22;59091;47.446;19.148;2023-12-14T04:51:35;6.92;83.74
71304;DHT22;59091;47.446;19.148;2023-12-14T04:54:00;6.98;83.47
71304;DHT22;59091;47.446;19.148;2023-12-14T04:56:26;6.98;83.48
71304;DHT22;59091;47.446;19.148;2023-12-14T04:58:51;6.96;83.40
71304;DHT22;59091;47.446;19.148;2023-12-14T05:01:16;6.98;83.43
71304;DHT22;59091;47.446;19.148;2023-12-14T05:03:42;6.99;83.28
71304;DHT22;59091;47.446;19.148;2023-12-14T05:06:07;7.03;83.16
71304;DHT22;59091;47.446;19.148;2023-12-14T05:08:33;7.06;82.98
71304;DHT22;59091;47.446;19.148;2023-12-14T05:10:59;7.05;82.94
71304;DHT22;59091;47.446;19.148;2023-12-14T05:13:24;7.08;82.83
71304;DHT22;59091;47.446;19.148;2023-12-14T05:15:51;7.09;82.67
71304;DHT22;59091;47.446;19.148;2023-12-14T05:18:17;7.12;82.53
71304;DHT22;59091;47.446;19.148;2023-12-14T05:20:42;7.06;82.76
71304;DHT22;59091;47.446;19.148;2023-12-14T05:23:08;7.00;82.69
71304;DHT22;59091;47.446;19.148;2023-12-14T05:25:34;6.87;83.09
71304;DHT22;59091;47.446;19.148;2023-12-14T05:27:59;6.91;82.97
71304;DHT22;59091;47.446;19.148;2023-12-14T05:30:24;6.88;82.90
71304;DHT22;59091;47.446;19.148;2023-12-14T05:32:50;6.81;83.09
71304;DHT22;59091;47.446;19.148;2023-12-14T05:35:15;6.85;83.18
71304;DHT22;59091;47.446;19.148;2023-12-14T05:37:41;6.87;83.01
71304;DHT22;59091;47.446;19.148;2023-12-14T05:40:09;6.79;83.22
71304;DHT22;59091;47.446;19.148;2023-12-14T05:42:35;6.85;86.98
71304;DHT22;59091;47.446;19.148;2023-12-14T05:45:00;6.89;84.87
71304;DHT22;59091;47.446;19.148;2023-12-14T05:47:26;6.95;84.28
71304;DHT22;59091;47.446;19.148;2023-12-14T05:49:52;7.02;83.74
71304;DHT22;59091;47.446;19.148;2023-12-14T05:52:17;7.03;83.33
71304;DHT22;59091;47.446;19.148;2023-12-14T05:54:43;7.02;83.00
71304;DHT22;59091;47.446;19.148;2023-12-14T05:57:08;7.08;82.74
71304;DHT22;59091;47.446;19.148;2023-12-14T05:59:33;7.03;82.53
71304;DHT22;59091;47.446;19.148;2023-12-14T06:02:00;7.24;84.71
71304;DHT22;59091;47.446;19.148;2023-12-14T06:04:26;7.20;83.53
71304;DHT22;59091;47.446;19.148;2023-12-14T06:06:52;7.20;83.00
71304;DHT22;59091;47.446;19.148;2023-12-14T06:09:18;7.24;84.19
71304;DHT22;59091;47.446;19.148;2023-12-14T06:11:47;7.44;85.54
71304;DHT22;59091;47.446;19.148;2023-12-14T06:14:12;7.43;83.91
71304;DHT22;59091;47.446;19.148;2023-12-14T06:16:37;7.37;83.12
71304;DHT22;59091;47.446;19.148;2023-12-14T06:19:03;7.36;83.06
71304;DHT22;59091;47.446;19.148;2023-12-14T06:21:28;7.30;82.51
71304;DHT22;59091;47.446;19.148;2023-12-14T06:23:55;7.20;81.94
71304;DHT22;59091;47.446;19.148;2023-12-14T06:26:21;7.15;81.98
71304;DHT22;59091;47.446;19.148;2023-12-14T06:28:47;7.18;82.61
71304;DHT22;59091;47.446;19.148;2023-12-14T06:31:16;7.15;82.89
71304;DHT22;59091;47.446;19.148;2023-12-14T06:33:42;7.34;84.46
71304;DHT22;59091;47.446;19.148;2023-12-14T06:36:08;7.29;83.54
71304;DHT22;59091;47.446;19.148;2023-12-14T06:38:34;7.29;83.53
71304;DHT22;59091;47.446;19.148;2023-12-14T06:41:00;7.15;82.71
71304;DHT22;59091;47.446;19.148;2023-12-14T06:43:27;6.95;83.12
71304;DHT22;59091;47.446;19.148;2023-12-14T06:45:53;7.10;82.71
71304;DHT22;59091;47.446;19.148;2023-12-14T06:48:18;7.10;82.36
71304;DHT22;59091;47.446;19.148;2023-12-14T06:50:44;7.15;82.26
71304;DHT22;59091;47.446;19.148;2023-12-14T06:53:09;7.12;82.17
71304;DHT22;59091;47.446;19.148;2023-12-14T06:55:35;7.09;82.22
71304;DHT22;59091;47.446;19.148;2023-12-14T06:58:01;6.89;82.76
71304;DHT22;59091;47.446;19.148;2023-12-14T07:00:26;6.92;82.84
71304;DHT22;59091;47.446;19.148;2023-12-14T07:02:54;6.93;82.98
71304;DHT22;59091;47.446;19.148;2023-12-14T07:05:20;6.96;82.89
71304;DHT22;59091;47.446;19.148;2023-12-14T07:07:45;7.00;82.71
71304;DHT22;59091;47.446;19.148;2023-12-14T07:10:11;7.05;82.65
71304;DHT22;59091;47.446;19.148;2023-12-14T07:12:36;7.13;82.56
71304;DHT22;59091;47.446;19.148;2023-12-14T07:15:02;7.20;82.40
71304;DHT22;59091;47.446;19.148;2023-12-14T07:17:27;7.22;82.27
71304;DHT22;59091;47.446;19.148;2023-12-14T07:19:53;7.29;82.18
71304;DHT22;59091;47.446;19.148;2023-12-14T07:22:19;7.31;82.03
71304;DHT22;59091;47.446;19.148;2023-12-14T07:24:44;7.34;81.90
71304;DHT22;59091;47.446;19.148;2023-12-14T07:27:10;7.40;81.76
71304;DHT22;59091;47.446;19.148;2023-12-14T07:29:35;7.40;81.70
71304;DHT22;59091;47.446;19.148;2023-12-14T07:32:00;7.30;81.84
71304;DHT22;59091;47.446;19.148;2023-12-14T07:34:26;7.27;81.86
71304;DHT22;59091;47.446;19.148;2023-12-14T07:36:53;7.24;82.07
71304;DHT22;59091;47.446;19.148;2023-12-14T07:39:19;7.36;81.88
71304;DHT22;59091;47.446;19.148;2023-12-14T07:41:45;8.11;90.22
71304;DHT22;59091;47.446;19.148;2023-12-14T07:44:10;9.20;90.30
71304;DHT22;59091;47.446;19.148;2023-12-14T07:46:35;9.38;88.24
71304;DHT22;59091;47.446;19.148;2023-12-14T07:49:04;9.20;85.29
71304;DHT22;59091;47.446;19.148;2023-12-14T07:51:30;9.45;87.78
71304;DHT22;59091;47.446;19.148;2023-12-14T07:53:55;9.28;83.45
71304;DHT22;59091;47.446;19.148;2023-12-14T07:56:20;9.07;81.36
71304;DHT22;59091;47.446;19.148;2023-12-14T07:58:50;8.93;79.52
71304;DHT22;59091;47.446;19.148;2023-12-14T08:01:16;8.76;78.68
71304;DHT22;59091;47.446;19.148;2023-12-14T08:03:41;8.50;78.94
71304;DHT22;59091;47.446;19.148;2023-12-14T08:06:07;8.39;79.36
71304;DHT22;59091;47.446;19.148;2023-12-14T08:08:32;8.45;80.30
71304;DHT22;59091;47.446;19.148;2023-12-14T08:10:57;8.36;80.18
71304;DHT22;59091;47.446;19.148;2023-12-14T08:13:23;8.39;80.00
71304;DHT22;59091;47.446;19.148;2023-12-14T08:15:48;8.29;80.08
71304;DHT22;59091;47.446;19.148;2023-12-14T08:18:14;8.31;80.10
71304;DHT22;59091;47.446;19.148;2023-12-14T08:20:39;8.28;81.56
71304;DHT22;59091;47.446;19.148;2023-12-14T08:23:04;8.31;80.74
71304;DHT22;59091;47.446;19.148;2023-12-14T08:25:30;8.31;80.52
71304;DHT22;59091;47.446;19.148;2023-12-14T08:27:55;8.24;80.28
71304;DHT22;59091;47.446;19.148;2023-12-14T08:30:21;8.12;80.54
71304;DHT22;59091;47.446;19.148;2023-12-14T08:32:46;8.12;80.57
71304;DHT22;59091;47.446;19.148;2023-12-14T08:35:12;8.24;80.51
71304;DHT22;59091;47.446;19.148;2023-12-14T08:37:37;8.16;80.70
71304;DHT22;59091;47.446;19.148;2023-12-14T08:40:04;8.26;80.49
71304;DHT22;59091;47.446;19.148;2023-12-14T08:42:30;8.28;80.41
71304;DHT22;59091;47.446;19.148;2023-12-14T08:44:56;8.36;80.38
71304;DHT22;59091;47.446;19.148;2023-12-14T08:47:21;8.38;80.18
71304;DHT22;59091;47.446;19.148;2023-12-14T08:49:47;8.49;80.02
71304;DHT22;59091;47.446;19.148;2023-12-14T08:52:12;8.56;80.26
71304;DHT22;59091;47.446;19.148;2023-12-14T08:54:39;8.64;80.23
71304;DHT22;59091;47.446;19.148;2023-12-14T08:57:05;8.72;79.89
71304;DHT22;59091;47.446;19.148;2023-12-14T08:59:31;8.80;79.57
71304;DHT22;59091;47.446;19.148;2023-12-14T09:01:56;8.88;79.22
71304;DHT22;59091;47.446;19.148;2023-12-14T09:04:22;8.93;78.95
71304;DHT22;59091;47.446;19.148;2023-12-14T09:06:47;8.97;78.86
71304;DHT22;59091;47.446;19.148;2023-12-14T09:09:13;9.61;84.28
71304;DHT22;59091;47.446;19.148;2023-12-14T09:11:38;9.62;81.65
71304;DHT22;59091;47.446;19.148;2023-12-14T09:14:05;9.44;78.57
71304;DHT22;59091;47.446;19.148;2023-12-14T09:16:30;9.45;77.58
71304;DHT22;59091;47.446;19.148;2023-12-14T09:18:56;9.46;78.00
71304;DHT22;59091;47.446;19.148;2023-12-14T09:21:21;9.55;78.17
71304;DHT22;59091;47.446;19.148;2023-12-14T09:23:46;9.54;77.40
71304;DHT22;59091;47.446;19.148;2023-12-14T09:26:14;9.55;77.01
71304;DHT22;59091;47.446;19.148;2023-12-14T09:28:39;9.54;76.71
71304;DHT22;59091;47.446;19.148;2023-12-14T09:31:05;9.55;76.58
71304;DHT22;59091;47.446;19.148;2023-12-14T09:33:31;9.44;76.08
71304;DHT22;59091;47.446;19.148;2023-12-14T09:35:56;9.36;76.26
71304;DHT22;59091;47.446;19.148;2023-12-14T09:38:22;9.27;76.50
71304;DHT22;59091;47.446;19.148;2023-12-14T09:40:47;9.30;76.31
71304;DHT22;59091;47.446;19.148;2023-12-14T09:43:13;9.30;76.44
71304;DHT22;59091;47.446;19.148;2023-12-14T09:45:40;9.15;76.17
71304;DHT22;59091;47.446;19.148;2023-12-14T09:48:10;9.18;76.68
71304;DHT22;59091;47.446;19.148;2023-12-14T09:50:35;9.31;76.68
71304;DHT22;59091;47.446;19.148;2023-12-14T09:53:02;9.36;76.35
71304;DHT22;59091;47.446;19.148;2023-12-14T09:55:27;9.44;76.22
71304;DHT22;59091;47.446;19.148;2023-12-14T09:57:52;9.51;78.58
71304;DHT22;59091;47.446;19.148;2023-12-14T10:00:35;9.56;77.08
71304;DHT22;59091;47.446;19.148;2023-12-14T10:03:21;9.74;76.45
71304;DHT22;59091;47.446;19.148;2023-12-14T10:05:47;9.76;75.82
71304;DHT22;59091;47.446;19.148;2023-12-14T10:08:13;9.81;75.65
71304;DHT22;59091;47.446;19.148;2023-12-14T10:10:39;9.75;75.05
71304;DHT22;59091;47.446;19.148;2023-12-14T10:13:04;9.74;75.15
71304;DHT22;59091;47.446;19.148;2023-12-14T10:15:40;9.72;75.04
71304;DHT22;59091;47.446;19.148;2023-12-14T10:18:05;9.86;75.23
71304;DHT22;59091;47.446;19.148;2023-12-14T10:20:32;9.90;74.97
71304;DHT22;59091;47.446;19.148;2023-12-14T10:22:57;9.96;74.69
71304;DHT22;59091;47.446;19.148;2023-12-14T10:25:22;10.03;74.47
71304;DHT22;59091;47.446;19.148;2023-12-14T10:27:50;10.02;74.10
71304;DHT22;59091;47.446;19.148;2023-12-14T10:30:18;9.97;74.08
71304;DHT22;59091;47.446;19.148;2023-12-14T10:32:49;10.06;74.18
71304;DHT22;59091;47.446;19.148;2023-12-14T10:35:16;10.17;74.03
71304;DHT22;59091;47.446;19.148;2023-12-14T10:37:42;9.87;73.86
71304;DHT22;59091;47.446;19.148;2023-12-14T10:40:11;9.92;73.56
71304;DHT22;59091;47.446;19.148;2023-12-14T10:42:39;10.00;73.88
71304;DHT22;59091;47.446;19.148;2023-12-14T10:45:07;11.11;85.89
71304;DHT22;59091;47.446;19.148;2023-12-14T10:47:34;10.96;75.98
71304;DHT22;59091;47.446;19.148;2023-12-14T10:50:00;10.84;71.80
71304;DHT22;59091;47.446;19.148;2023-12-14T10:52:27;10.57;71.58
71304;DHT22;59091;47.446;19.148;2023-12-14T10:54:59;10.46;72.10
71304;DHT22;59091;47.446;19.148;2023-12-14T10:57:25;10.61;75.81
71304;DHT22;59091;47.446;19.148;2023-12-14T10:59:58;10.71;74.25
71304;DHT22;59091;47.446;19.148;2023-12-14T11:02:24;10.23;72.69
71304;DHT22;59091;47.446;19.148;2023-12-14T11:04:58;10.30;72.62
71304;DHT22;59091;47.446;19.148;2023-12-14T11:07:55;10.10;72.69
71304;DHT22;59091;47.446;19.148;2023-12-14T11:10:29;10.20;73.12
71304;DHT22;59091;47.446;19.148;2023-12-14T11:13:03;9.95;73.53
71304;DHT22;59091;47.446;19.148;2023-12-14T11:15:33;9.79;74.00
71304;DHT22;59091;47.446;19.148;2023-12-14T11:23:18;9.79;74.26
71304;DHT22;59091;47.446;19.148;2023-12-14T11:26:00;9.68;73.93
71304;DHT22;59091;47.446;19.148;2023-12-14T11:28:28;9.79;73.98
71304;DHT22;59091;47.446;19.148;2023-12-14T11:30:54;9.61;74.44
71304;DHT22;59091;47.446;19.148;2023-12-14T11:33:20;9.56;74.68
71304;DHT22;59091;47.446;19.148;2023-12-14T11:35:45;9.72;74.81
71304;DHT22;59091;47.446;19.148;2023-12-14T11:38:11;9.66;74.23
71304;DHT22;59091;47.446;19.148;2023-12-14T11:40:42;9.78;74.05
71304;DHT22;59091;47.446;19.148;2023-12-14T11:43:08;9.78;73.75
71304;DHT22;59091;47.446;19.148;2023-12-14T11:45:38;9.79;73.58
71304;DHT22;59091;47.446;19.148;2023-12-14T11:48:11;9.89;74.40
71304;DHT22;59091;47.446;19.148;2023-12-14T11:50:38;10.92;77.01
71304;DHT22;59091;47.446;19.148;2023-12-14T11:53:04;10.18;71.17
71304;DHT22;59091;47.446;19.148;2023-12-14T11:55:33;10.00;72.16
71304;DHT22;59091;47.446;19.148;2023-12-14T11:57:59;9.95;72.88
71304;DHT22;59091;47.446;19.148;2023-12-14T12:00:26;9.81;73.42
71304;DHT22;59091;47.446;19.148;2023-12-14T12:02:53;11.18;81.84
71304;DHT22;59091;47.446;19.148;2023-12-14T12:05:36;10.55;70.67
71304;DHT22;59091;47.446;19.148;2023-12-14T12:08:02;10.02;72.04
71304;DHT22;59091;47.446;19.148;2023-12-14T12:10:28;10.12;72.66
71304;DHT22;59091;47.446;19.148;2023-12-14T12:13:04;9.75;72.91
71304;DHT22;59091;47.446;19.148;2023-12-14T12:15:32;9.63;73.65
71304;DHT22;59091;47.446;19.148;2023-12-14T12:17:58;9.65;74.47
71304;DHT22;59091;47.446;19.148;2023-12-14T12:20:23;9.62;74.51
71304;DHT22;59091;47.446;19.148;2023-12-14T12:22:51;9.86;74.13
71304;DHT22;59091;47.446;19.148;2023-12-14T12:25:16;9.46;74.19
71304;DHT22;59091;47.446;19.148;2023-12-14T12:27:41;9.54;74.42
71304;DHT22;59091;47.446;19.148;2023-12-14T12:30:07;9.54;74.71
71304;DHT22;59091;47.446;19.148;2023-12-14T12:32:33;9.52;74.70
71304;DHT22;59091;47.446;19.148;2023-12-14T12:34:59;9.45;74.68
71304;DHT22;59091;47.446;19.148;2023-12-14T12:37:24;9.39;75.24
71304;DHT22;59091;47.446;19.148;2023-12-14T12:39:49;9.39;75.32
71304;DHT22;59091;47.446;19.148;2023-12-14T12:42:15;9.44;75.00
71304;DHT22;59091;47.446;19.148;2023-12-14T12:44:41;9.08;75.45
71304;DHT22;59091;47.446;19.148;2023-12-14T12:47:06;9.21;75.99
71304;DHT22;59091;47.446;19.148;2023-12-14T12:49:32;9.08;75.92
71304;DHT22;59091;47.446;19.148;2023-12-14T12:51:57;9.18;75.83
71304;DHT22;59091;47.446;19.148;2023-12-14T12:54:22;9.20;75.56
71304;DHT22;59091;47.446;19.148;2023-12-14T12:56:48;9.10;75.48
71304;DHT22;59091;47.446;19.148;2023-12-14T12:59:13;8.99;75.63
71304;DHT22;59091;47.446;19.148;2023-12-14T13:01:39;9.17;75.83
71304;DHT22;59091;47.446;19.148;2023-12-14T13:04:17;9.39;78.12
71304;DHT22;59091;47.446;19.148;2023-12-14T13:06:43;9.28;74.97
71304;DHT22;59091;47.446;19.148;2023-12-14T13:09:08;9.15;75.34
71304;DHT22;59091;47.446;19.148;2023-12-14T13:11:33;8.99;76.06
71304;DHT22;59091;47.446;19.148;2023-12-14T13:13:59;9.08;75.67
71304;DHT22;59091;47.446;19.148;2023-12-14T13:16:27;8.91;75.99
71304;DHT22;59091;47.446;19.148;2023-12-14T13:18:53;8.91;76.28
71304;DHT22;59091;47.446;19.148;2023-12-14T13:21:18;9.03;76.09
71304;DHT22;59091;47.446;19.148;2023-12-14T13:23:45;9.04;76.05
71304;DHT22;59091;47.446;19.148;2023-12-14T13:26:10;9.07;75.94
71304;DHT22;59091;47.446;19.148;2023-12-14T13:28:36;9.07;75.98
71304;DHT22;59091;47.446;19.148;2023-12-14T13:31:01;9.08;75.95
71304;DHT22;59091;47.446;19.148;2023-12-14T13:33:27;9.05;76.36
71304;DHT22;59091;47.446;19.148;2023-12-14T13:35:52;8.99;76.25
71304;DHT22;59091;47.446;19.148;2023-12-14T13:38:18;8.90;76.48
71304;DHT22;59091;47.446;19.148;2023-12-14T13:40:43;8.88;76.58
71304;DHT22;59091;47.446;19.148;2023-12-14T13:43:09;8.76;76.70
71304;DHT22;59091;47.446;19.148;2023-12-14T13:45:38;8.83;76.86
71304;DHT22;59091;47.446;19.148;2023-12-14T13:48:04;8.81;76.89
71304;DHT22;59091;47.446;19.148;2023-12-14T13:50:29;8.87;76.82
71304;DHT22;59091;47.446;19.148;2023-12-14T13:52:55;8.84;76.97
71304;DHT22;59091;47.446;19.148;2023-12-14T13:55:21;8.96;76.75
71304;DHT22;59091;47.446;19.148;2023-12-14T13:57:47;8.88;77.12
71304;DHT22;59091;47.446;19.148;2023-12-14T14:00:13;8.76;77.44
71304;DHT22;59091;47.446;19.148;2023-12-14T14:02:39;8.76;77.44
71304;DHT22;59091;47.446;19.148;2023-12-14T14:05:04;8.77;77.51
71304;DHT22;59091;47.446;19.148;2023-12-14T14:07:30;8.74;77.47
71304;DHT22;59091;47.446;19.148;2023-12-14T14:09:56;8.87;77.18
71304;DHT22;59091;47.446;19.148;2023-12-14T14:12:22;9.00;76.97
71304;DHT22;59091;47.446;19.148;2023-12-14T14:14:47;8.91;77.21
71304;DHT22;59091;47.446;19.148;2023-12-14T14:17:13;8.94;77.15
71304;DHT22;59091;47.446;19.148;2023-12-14T14:19:38;8.84;77.24
71304;DHT22;59091;47.446;19.148;2023-12-14T14:22:04;8.90;77.10
71304;DHT22;59091;47.446;19.148;2023-12-14T14:24:30;8.99;76.85
71304;DHT22;59091;47.446;19.148;2023-12-14T14:26:56;8.99;76.86
71304;DHT22;59091;47.446;19.148;2023-12-14T14:29:22;8.87;77.22
71304;DHT22;59091;47.446;19.148;2023-12-14T14:31:47;8.94;77.81
71304;DHT22;59091;47.446;19.148;2023-12-14T14:34:13;8.90;77.31
71304;DHT22;59091;47.446;19.148;2023-12-14T14:36:39;8.67;77.85
71304;DHT22;59091;47.446;19.148;2023-12-14T14:39:04;8.45;78.58
71304;DHT22;59091;47.446;19.148;2023-12-14T14:41:30;8.59;78.23
71304;DHT22;59091;47.446;19.148;2023-12-14T14:43:56;8.50;78.41
71304;DHT22;59091;47.446;19.148;2023-12-14T14:46:22;8.62;78.16
71304;DHT22;59091;47.446;19.148;2023-12-14T14:48:48;8.66;78.20
71304;DHT22;59091;47.446;19.148;2023-12-14T14:51:13;8.56;78.28
71304;DHT22;59091;47.446;19.148;2023-12-14T14:53:39;8.57;78.45
71304;DHT22;59091;47.446;19.148;2023-12-14T14:56:08;8.59;78.28
71304;DHT22;59091;47.446;19.148;2023-12-14T14:58:34;8.62;78.19
71304;DHT22;59091;47.446;19.148;2023-12-14T15:00:59;8.52;78.38
71304;DHT22;59091;47.446;19.148;2023-12-14T15:03:25;8.56;78.37
71304;DHT22;59091;47.446;19.148;2023-12-14T15:05:50;8.57;78.18
71304;DHT22;59091;47.446;19.148;2023-12-14T15:08:16;8.60;78.02
71304;DHT22;59091;47.446;19.148;2023-12-14T15:10:41;8.63;77.90
71304;DHT22;59091;47.446;19.148;2023-12-14T15:13:06;8.66;77.78
71304;DHT22;59091;47.446;19.148;2023-12-14T15:15:32;8.64;77.62
71304;DHT22;59091;47.446;19.148;2023-12-14T15:17:58;8.63;77.43
71304;DHT22;59091;47.446;19.148;2023-12-14T15:20:23;8.62;77.29
71304;DHT22;59091;47.446;19.148;2023-12-14T15:22:49;8.54;77.30
71304;DHT22;59091;47.446;19.148;2023-12-14T15:25:14;8.48;77.32
71304;DHT22;59091;47.446;19.148;2023-12-14T15:27:42;8.48;77.32
71304;DHT22;59091;47.446;19.148;2023-12-14T15:30:08;8.43;77.44
71304;DHT22;59091;47.446;19.148;2023-12-14T15:32:34;8.45;77.48